sensor_id;sensor_type;location;lat;lon;timestamp;temperature;humidity
63313;DHT22;49442;45.640;13.812;2022-09-09T00:04:28;20.50;99.90
63313;DHT22;49442;45.640;13.812;2022-09-09T00:13:06;20.50;99.90
63313;DHT22;49442;45.640;13.812;2022-09-09T00:15:41;20.50;99.90
63313;DHT22;49442;45.640;13.812;2022-09-09T00:21:00;20.40;99.90
63313;DHT22;49442;45.640;13.812;2022-09-09T00:23:31;20.40;99.90
63313;DHT22;49442;45.640;13.812;2022-09-09T00:29:05;20.40;99.90
63313;DHT22;49442;45.640;13.812;2022-09-09T00:31:36;20.40;99.90
63313;DHT22;49442;45.640;13.812;2022-09-09T00:34:21;20.40;99.90
63313;DHT22;49442;45.640;13.812;2022-09-09T00:36:50;20.40;99.90
63313;DHT22;49442;45.640;13.812;2022-09-09T00:39:32;20.40;99.90
63313;DHT22;49442;45.640;13.812;2022-09-09T00:47:46;20.40;99.90
63313;DHT22;49442;45.640;13.812;2022-09-09T00:50:31;20.40;99.90
63313;DHT22;49442;45.640;13.812;2022-09-09T00:58:43;20.40;99.90
63313;DHT22;49442;45.640;13.812;2022-09-09T01:01:12;20.40;99.90
63313;DHT22;49442;45.640;13.812;2022-09-09T01:03:52;20.40;99.90
63313;DHT22;49442;45.640;13.812;2022-09-09T01:06:33;20.30;99.90
63313;DHT22;49442;45.640;13.812;2022-09-09T01:09:05;20.30;99.90
63313;DHT22;49442;45.640;13.812;2022-09-09T01:16:59;20.40;99.90
63313;DHT22;49442;45.640;13.812;2022-09-09T01:20:06;20.40;99.90
63313;DHT22;49442;45.640;13.812;2022-09-09T01:27:43;20.30;99.90
63313;DHT22;49442;45.640;13.812;2022-09-09T01:30:16;20.30;99.90
63313;DHT22;49442;45.640;13.812;2022-09-09T01:32:45;20.30;99.90
63313;DHT22;49442;45.640;13.812;2022-09-09T01:35:59;20.30;99.90
63313;DHT22;49442;45.640;13.812;2022-09-09T01:38:04;20.30;99.90
63313;DHT22;49442;45.640;13.812;2022-09-09T01:40:30;20.30;99.90
63313;DHT22;49442;45.640;13.812;2022-09-09T01:42:56;20.20;99.90
63313;DHT22;49442;45.640;13.812;2022-09-09T01:45:22;20.30;99.90
63313;DHT22;49442;45.640;13.812;2022-09-09T01:47:49;20.30;99.90
63313;DHT22;49442;45.640;13.812;2022-09-09T01:50:16;20.30;99.90
63313;DHT22;49442;45.640;13.812;2022-09-09T01:52:44;20.30;99.90
63313;DHT22;49442;45.640;13.812;2022-09-09T01:55:11;20.30;99.90
63313;DHT22;49442;45.640;13.812;2022-09-09T01:58:17;20.30;99.90
63313;DHT22;49442;45.640;13.812;2022-09-09T02:00:50;20.20;99.90
63313;DHT22;49442;45.640;13.812;2022-09-09T02:03:21;20.20;99.90
63313;DHT22;49442;45.640;13.812;2022-09-09T02:08:54;20.30;99.90
63313;DHT22;49442;45.640;13.812;2022-09-09T02:11:26;20.30;99.90
63313;DHT22;49442;45.640;13.812;2022-09-09T02:13:57;20.30;99.90
63313;DHT22;49442;45.640;13.812;2022-09-09T02:16:56;20.30;99.90
63313;DHT22;49442;45.640;13.812;2022-09-09T02:19:46;20.30;99.90
63313;DHT22;49442;45.640;13.812;2022-09-09T02:22:16;20.30;99.90
63313;DHT22;49442;45.640;13.812;2022-09-09T02:24:44;20.30;99.90
63313;DHT22;49442;45.640;13.812;2022-09-09T02:27:13;20.30;99.90
63313;DHT22;49442;45.640;13.812;2022-09-09T02:29:42;20.30;99.90
63313;DHT22;49442;45.640;13.812;2022-09-09T02:32:15;20.30;99.90
63313;DHT22;49442;45.640;13.812;2022-09-09T02:34:58;20.30;99.90
63313;DHT22;49442;45.640;13.812;2022-09-09T02:37:29;20.30;99.90
63313;DHT22;49442;45.640;13.812;2022-09-09T02:39:57;20.20;99.90
63313;DHT22;49442;45.640;13.812;2022-09-09T02:42:22;20.20;99.90
63313;DHT22;49442;45.640;13.812;2022-09-09T02:44:49;20.20;99.90
63313;DHT22;49442;45.640;13.812;2022-09-09T02:47:21;20.20;99.90
63313;DHT22;49442;45.640;13.812;2022-09-09T02:50:05;20.20;99.90
63313;DHT22;49442;45.640;13.812;2022-09-09T02:55:24;20.10;99.90
63313;DHT22;49442;45.640;13.812;2022-09-09T02:57:55;20.10;99.90
63313;DHT22;49442;45.640;13.812;2022-09-09T03:00:27;20.10;99.90
63313;DHT22;49442;45.640;13.812;2022-09-09T03:02:53;20.10;99.90
63313;DHT22;49442;45.640;13.812;2022-09-09T03:05:22;20.10;99.90
63313;DHT22;49442;45.640;13.812;2022-09-09T03:07:47;20.10;99.90
63313;DHT22;49442;45.640;13.812;2022-09-09T03:10:15;20.10;99.90
63313;DHT22;49442;45.640;13.812;2022-09-09T03:12:40;20.10;99.90
63313;DHT22;49442;45.640;13.812;2022-09-09T03:15:07;20.10;99.90
63313;DHT22;49442;45.640;13.812;2022-09-09T03:17:32;20.10;99.90
63313;DHT22;49442;45.640;13.812;2022-09-09T03:19:58;20.10;99.90
63313;DHT22;49442;45.640;13.812;2022-09-09T03:22:25;20.10;99.90
63313;DHT22;49442;45.640;13.812;2022-09-09T03:24:51;20.00;99.90
63313;DHT22;49442;45.640;13.812;2022-09-09T03:27:17;20.00;99.90
63313;DHT22;49442;45.640;13.812;2022-09-09T03:29:45;20.00;99.90
63313;DHT22;49442;45.640;13.812;2022-09-09T03:32:11;20.00;99.90
63313;DHT22;49442;45.640;13.812;2022-09-09T03:34:37;20.00;99.90
63313;DHT22;49442;45.640;13.812;2022-09-09T03:37:06;20.00;99.90
63313;DHT22;49442;45.640;13.812;2022-09-09T03:39:31;20.00;99.90
63313;DHT22;49442;45.640;13.812;2022-09-09T03:41:57;20.00;99.90
63313;DHT22;49442;45.640;13.812;2022-09-09T03:44:23;20.00;99.90
63313;DHT22;49442;45.640;13.812;2022-09-09T03:46:49;20.00;99.90
63313;DHT22;49442;45.640;13.812;2022-09-09T03:49:14;19.90;99.90
63313;DHT22;49442;45.640;13.812;2022-09-09T03:51:40;20.00;99.90
63313;DHT22;49442;45.640;13.812;2022-09-09T03:54:07;19.90;99.90
63313;DHT22;49442;45.640;13.812;2022-09-09T03:56:34;20.00;99.90
63313;DHT22;49442;45.640;13.812;2022-09-09T03:59:00;20.00;99.90
63313;DHT22;49442;45.640;13.812;2022-09-09T04:01:26;19.90;99.90
63313;DHT22;49442;45.640;13.812;2022-09-09T04:03:52;19.90;99.90
63313;DHT22;49442;45.640;13.812;2022-09-09T04:06:18;20.00;99.90
63313;DHT22;49442;45.640;13.812;2022-09-09T04:08:45;20.00;99.90
63313;DHT22;49442;45.640;13.812;2022-09-09T04:11:11;20.00;99.90
63313;DHT22;49442;45.640;13.812;2022-09-09T04:13:38;20.00;99.90
63313;DHT22;49442;45.640;13.812;2022-09-09T04:16:04;20.00;99.90
63313;DHT22;49442;45.640;13.812;2022-09-09T04:18:30;20.00;99.90
63313;DHT22;49442;45.640;13.812;2022-09-09T04:20:56;20.00;99.90
63313;DHT22;49442;45.640;13.812;2022-09-09T04:23:23;20.00;99.90
63313;DHT22;49442;45.640;13.812;2022-09-09T04:25:52;20.00;99.90
63313;DHT22;49442;45.640;13.812;2022-09-09T04:28:20;20.00;99.90
63313;DHT22;49442;45.640;13.812;2022-09-09T04:30:47;20.00;99.90
63313;DHT22;49442;45.640;13.812;2022-09-09T04:33:13;19.90;99.90
63313;DHT22;49442;45.640;13.812;2022-09-09T04:35:39;19.90;99.90
63313;DHT22;49442;45.640;13.812;2022-09-09T04:38:09;19.90;99.90
63313;DHT22;49442;45.640;13.812;2022-09-09T04:40:35;19.90;99.90
63313;DHT22;49442;45.640;13.812;2022-09-09T04:43:01;19.90;99.90
63313;DHT22;49442;45.640;13.812;2022-09-09T04:45:29;19.90;99.90
63313;DHT22;49442;45.640;13.812;2022-09-09T04:47:55;19.90;99.90
63313;DHT22;49442;45.640;13.812;2022-09-09T04:50:21;20.00;99.90
63313;DHT22;49442;45.640;13.812;2022-09-09T04:52:46;19.90;99.90
63313;DHT22;49442;45.640;13.812;2022-09-09T04:55:12;19.90;99.90
63313;DHT22;49442;45.640;13.812;2022-09-09T04:57:39;19.90;99.90
63313;DHT22;49442;45.640;13.812;2022-09-09T05:00:05;19.90;99.90
63313;DHT22;49442;45.640;13.812;2022-09-09T05:02:31;19.90;99.90
63313;DHT22;49442;45.640;13.812;2022-09-09T05:04:58;19.90;99.90
63313;DHT22;49442;45.640;13.812;2022-09-09T05:07:23;19.90;99.90
63313;DHT22;49442;45.640;13.812;2022-09-09T05:09:49;19.90;99.90
63313;DHT22;49442;45.640;13.812;2022-09-09T05:12:18;19.90;99.90
63313;DHT22;49442;45.640;13.812;2022-09-09T05:14:44;19.80;99.90
63313;DHT22;49442;45.640;13.812;2022-09-09T05:17:10;19.80;99.90
63313;DHT22;49442;45.640;13.812;2022-09-09T05:19:36;19.90;99.90
63313;DHT22;49442;45.640;13.812;2022-09-09T05:22:02;19.90;99.90
63313;DHT22;49442;45.640;13.812;2022-09-09T05:24:28;19.80;99.90
63313;DHT22;49442;45.640;13.812;2022-09-09T05:26:54;19.80;99.90
63313;DHT22;49442;45.640;13.812;2022-09-09T05:29:23;19.90;99.90
63313;DHT22;49442;45.640;13.812;2022-09-09T05:31:49;19.90;99.90
63313;DHT22;49442;45.640;13.812;2022-09-09T05:34:14;19.90;99.90
63313;DHT22;49442;45.640;13.812;2022-09-09T05:36:40;19.90;99.90
63313;DHT22;49442;45.640;13.812;2022-09-09T05:39:06;19.90;99.90
63313;DHT22;49442;45.640;13.812;2022-09-09T05:41:31;20.00;99.90
63313;DHT22;49442;45.640;13.812;2022-09-09T05:43:58;20.00;99.90
63313;DHT22;49442;45.640;13.812;2022-09-09T05:46:26;20.00;99.90
63313;DHT22;49442;45.640;13.812;2022-09-09T05:48:53;20.20;99.90
63313;DHT22;49442;45.640;13.812;2022-09-09T05:51:23;20.20;99.90
63313;DHT22;49442;45.640;13.812;2022-09-09T05:53:50;20.20;99.90
63313;DHT22;49442;45.640;13.812;2022-09-09T05:56:25;20.20;99.90
63313;DHT22;49442;45.640;13.812;2022-09-09T05:58:51;20.20;99.90
63313;DHT22;49442;45.640;13.812;2022-09-09T06:03:48;20.20;99.90
63313;DHT22;49442;45.640;13.812;2022-09-09T06:06:19;20.20;99.90
63313;DHT22;49442;45.640;13.812;2022-09-09T06:08:54;20.30;99.90
63313;DHT22;49442;45.640;13.812;2022-09-09T06:11:30;20.40;99.90
63313;DHT22;49442;45.640;13.812;2022-09-09T06:14:00;20.40;99.90
63313;DHT22;49442;45.640;13.812;2022-09-09T06:16:27;20.40;99.90
63313;DHT22;49442;45.640;13.812;2022-09-09T06:18:54;20.40;99.90
63313;DHT22;49442;45.640;13.812;2022-09-09T06:23:50;20.50;99.90
63313;DHT22;49442;45.640;13.812;2022-09-09T06:26:27;20.50;99.90
63313;DHT22;49442;45.640;13.812;2022-09-09T06:28:55;20.60;99.90
63313;DHT22;49442;45.640;13.812;2022-09-09T06:31:23;20.60;99.90
63313;DHT22;49442;45.640;13.812;2022-09-09T06:33:50;20.60;99.90
63313;DHT22;49442;45.640;13.812;2022-09-09T06:36:22;20.60;99.90
63313;DHT22;49442;45.640;13.812;2022-09-09T06:38:48;20.70;99.90
63313;DHT22;49442;45.640;13.812;2022-09-09T06:41:16;20.80;99.90
63313;DHT22;49442;45.640;13.812;2022-09-09T06:43:42;21.00;99.90
63313;DHT22;49442;45.640;13.812;2022-09-09T06:48:42;21.00;99.90
63313;DHT22;49442;45.640;13.812;2022-09-09T06:53:38;21.10;99.90
63313;DHT22;49442;45.640;13.812;2022-09-09T06:58:45;21.10;99.90
63313;DHT22;49442;45.640;13.812;2022-09-09T07:01:13;21.10;99.90
63313;DHT22;49442;45.640;13.812;2022-09-09T07:03:42;21.10;99.90
63313;DHT22;49442;45.640;13.812;2022-09-09T07:06:14;21.20;99.90
63313;DHT22;49442;45.640;13.812;2022-09-09T07:08:42;21.30;99.90
63313;DHT22;49442;45.640;13.812;2022-09-09T07:11:09;21.40;99.90
63313;DHT22;49442;45.640;13.812;2022-09-09T07:13:35;21.30;99.90
63313;DHT22;49442;45.640;13.812;2022-09-09T07:16:05;21.40;99.90
63313;DHT22;49442;45.640;13.812;2022-09-09T07:18:31;21.60;99.90
63313;DHT22;49442;45.640;13.812;2022-09-09T07:20:57;21.70;99.90
63313;DHT22;49442;45.640;13.812;2022-09-09T07:23:23;21.60;99.90
63313;DHT22;49442;45.640;13.812;2022-09-09T07:25:50;21.70;99.90
63313;DHT22;49442;45.640;13.812;2022-09-09T07:28:16;21.70;99.90
63313;DHT22;49442;45.640;13.812;2022-09-09T07:30:42;21.80;99.90
63313;DHT22;49442;45.640;13.812;2022-09-09T07:33:08;21.70;99.90
63313;DHT22;49442;45.640;13.812;2022-09-09T07:35:36;21.80;99.90
63313;DHT22;49442;45.640;13.812;2022-09-09T07:38:04;21.90;99.90
63313;DHT22;49442;45.640;13.812;2022-09-09T07:40:33;22.00;99.90
63313;DHT22;49442;45.640;13.812;2022-09-09T07:42:59;22.00;99.90
63313;DHT22;49442;45.640;13.812;2022-09-09T07:45:26;22.00;99.90
63313;DHT22;49442;45.640;13.812;2022-09-09T07:47:54;22.00;99.90
63313;DHT22;49442;45.640;13.812;2022-09-09T07:50:22;22.10;99.90
63313;DHT22;49442;45.640;13.812;2022-09-09T07:52:49;22.10;99.90
63313;DHT22;49442;45.640;13.812;2022-09-09T07:55:14;22.20;99.90
63313;DHT22;49442;45.640;13.812;2022-09-09T07:57:40;22.40;99.90
63313;DHT22;49442;45.640;13.812;2022-09-09T08:00:06;22.40;99.90
63313;DHT22;49442;45.640;13.812;2022-09-09T08:02:32;22.60;99.90
63313;DHT22;49442;45.640;13.812;2022-09-09T08:04:58;22.60;99.90
63313;DHT22;49442;45.640;13.812;2022-09-09T08:07:24;22.70;99.90
63313;DHT22;49442;45.640;13.812;2022-09-09T08:09:49;22.80;99.90
63313;DHT22;49442;45.640;13.812;2022-09-09T08:12:15;22.90;99.90
63313;DHT22;49442;45.640;13.812;2022-09-09T08:14:41;22.90;99.90
63313;DHT22;49442;45.640;13.812;2022-09-09T08:17:07;23.00;99.90
63313;DHT22;49442;45.640;13.812;2022-09-09T08:19:33;23.10;99.90
63313;DHT22;49442;45.640;13.812;2022-09-09T08:22:02;23.10;99.90
63313;DHT22;49442;45.640;13.812;2022-09-09T08:24:28;23.10;99.90
63313;DHT22;49442;45.640;13.812;2022-09-09T08:26:54;23.30;99.90
63313;DHT22;49442;45.640;13.812;2022-09-09T08:29:22;23.20;99.90
63313;DHT22;49442;45.640;13.812;2022-09-09T08:31:53;23.10;99.90
63313;DHT22;49442;45.640;13.812;2022-09-09T08:34:21;23.10;99.90
63313;DHT22;49442;45.640;13.812;2022-09-09T08:36:48;23.10;99.90
63313;DHT22;49442;45.640;13.812;2022-09-09T08:39:17;23.10;99.90
63313;DHT22;49442;45.640;13.812;2022-09-09T08:42:08;22.90;99.90
63313;DHT22;49442;45.640;13.812;2022-09-09T08:45:00;22.90;99.90
63313;DHT22;49442;45.640;13.812;2022-09-09T08:47:36;22.90;99.90
63313;DHT22;49442;45.640;13.812;2022-09-09T08:55:44;22.90;99.90
63313;DHT22;49442;45.640;13.812;2022-09-09T08:58:17;22.90;99.90
63313;DHT22;49442;45.640;13.812;2022-09-09T09:06:26;23.10;99.90
63313;DHT22;49442;45.640;13.812;2022-09-09T09:11:21;23.00;99.90
63313;DHT22;49442;45.640;13.812;2022-09-09T09:14:25;23.00;99.90
63313;DHT22;49442;45.640;13.812;2022-09-09T09:16:51;23.10;99.90
63313;DHT22;49442;45.640;13.812;2022-09-09T09:19:18;23.10;99.90
63313;DHT22;49442;45.640;13.812;2022-09-09T09:21:50;23.10;99.90
63313;DHT22;49442;45.640;13.812;2022-09-09T09:24:20;23.00;99.90
63313;DHT22;49442;45.640;13.812;2022-09-09T09:26:47;22.90;99.90
63313;DHT22;49442;45.640;13.812;2022-09-09T09:29:16;22.90;99.90
63313;DHT22;49442;45.640;13.812;2022-09-09T09:31:51;22.80;99.90
63313;DHT22;49442;45.640;13.812;2022-09-09T09:34:18;22.80;99.90
63313;DHT22;49442;45.640;13.812;2022-09-09T09:36:53;22.80;99.90
63313;DHT22;49442;45.640;13.812;2022-09-09T09:39:28;22.70;99.90
63313;DHT22;49442;45.640;13.812;2022-09-09T09:41:54;21.80;99.90
63313;DHT22;49442;45.640;13.812;2022-09-09T09:44:31;20.90;99.90
63313;DHT22;49442;45.640;13.812;2022-09-09T09:47:10;20.40;99.90
63313;DHT22;49442;45.640;13.812;2022-09-09T09:49:37;20.10;99.90
63313;DHT22;49442;45.640;13.812;2022-09-09T09:52:04;19.60;99.90
63313;DHT22;49442;45.640;13.812;2022-09-09T09:54:38;18.90;99.90
63313;DHT22;49442;45.640;13.812;2022-09-09T09:57:16;18.60;99.90
63313;DHT22;49442;45.640;13.812;2022-09-09T09:59:43;18.30;99.90
63313;DHT22;49442;45.640;13.812;2022-09-09T10:04:40;18.20;99.90
63313;DHT22;49442;45.640;13.812;2022-09-09T10:07:20;18.00;99.90
63313;DHT22;49442;45.640;13.812;2022-09-09T10:09:53;17.90;99.90
63313;DHT22;49442;45.640;13.812;2022-09-09T10:12:34;17.90;99.90
63313;DHT22;49442;45.640;13.812;2022-09-09T10:22:35;18.10;99.90
63313;DHT22;49442;45.640;13.812;2022-09-09T10:25:57;18.20;99.90
63313;DHT22;49442;45.640;13.812;2022-09-09T10:37:25;18.40;99.90
63313;DHT22;49442;45.640;13.812;2022-09-09T10:42:42;18.60;99.90
63313;DHT22;49442;45.640;13.812;2022-09-09T10:50:42;18.90;99.90
63313;DHT22;49442;45.640;13.812;2022-09-09T10:55:51;19.10;99.90
63313;DHT22;49442;45.640;13.812;2022-09-09T10:58:29;19.10;99.90
63313;DHT22;49442;45.640;13.812;2022-09-09T11:00:59;19.20;99.90
63313;DHT22;49442;45.640;13.812;2022-09-09T11:03:29;19.20;99.90
63313;DHT22;49442;45.640;13.812;2022-09-09T11:08:26;19.40;99.90
63313;DHT22;49442;45.640;13.812;2022-09-09T11:11:12;19.50;99.90
63313;DHT22;49442;45.640;13.812;2022-09-09T11:16:50;19.70;99.90
63313;DHT22;49442;45.640;13.812;2022-09-09T11:21:51;19.90;99.90
63313;DHT22;49442;45.640;13.812;2022-09-09T11:26:57;20.20;99.90
63313;DHT22;49442;45.640;13.812;2022-09-09T11:38:09;20.50;99.90
63313;DHT22;49442;45.640;13.812;2022-09-09T11:40:37;20.60;99.90
63313;DHT22;49442;45.640;13.812;2022-09-09T11:43:09;20.70;99.90
63313;DHT22;49442;45.640;13.812;2022-09-09T11:45:39;20.70;99.90
63313;DHT22;49442;45.640;13.812;2022-09-09T11:48:05;20.80;99.90
63313;DHT22;49442;45.640;13.812;2022-09-09T11:50:37;20.90;99.90
63313;DHT22;49442;45.640;13.812;2022-09-09T11:53:18;20.90;99.90
63313;DHT22;49442;45.640;13.812;2022-09-09T11:55:46;20.90;99.90
63313;DHT22;49442;45.640;13.812;2022-09-09T12:00:46;21.00;99.90
63313;DHT22;49442;45.640;13.812;2022-09-09T12:06:08;21.20;99.90
63313;DHT22;49442;45.640;13.812;2022-09-09T12:08:35;21.20;99.90
63313;DHT22;49442;45.640;13.812;2022-09-09T12:11:02;21.30;99.90
63313;DHT22;49442;45.640;13.812;2022-09-09T12:13:31;21.40;99.90
63313;DHT22;49442;45.640;13.812;2022-09-09T12:15:58;21.60;99.90
63313;DHT22;49442;45.640;13.812;2022-09-09T12:18:35;21.70;99.90
63313;DHT22;49442;45.640;13.812;2022-09-09T12:23:53;21.90;99.90
63313;DHT22;49442;45.640;13.812;2022-09-09T12:37:32;22.20;99.90
63313;DHT22;49442;45.640;13.812;2022-09-09T12:40:02;22.30;99.90
63313;DHT22;49442;45.640;13.812;2022-09-09T12:42:29;22.30;99.90
63313;DHT22;49442;45.640;13.812;2022-09-09T12:44:57;22.30;99.90
63313;DHT22;49442;45.640;13.812;2022-09-09T12:49:56;22.40;99.90
63313;DHT22;49442;45.640;13.812;2022-09-09T12:52:36;22.40;99.90
63313;DHT22;49442;45.640;13.812;2022-09-09T12:55:05;22.40;99.90
63313;DHT22;49442;45.640;13.812;2022-09-09T12:57:38;22.40;99.90
63313;DHT22;49442;45.640;13.812;2022-09-09T13:00:07;22.40;99.90
63313;DHT22;49442;45.640;13.812;2022-09-09T13:02:34;22.40;99.90
63313;DHT22;49442;45.640;13.812;2022-09-09T13:05:36;22.30;99.90
63313;DHT22;49442;45.640;13.812;2022-09-09T13:08:04;22.50;99.90
63313;DHT22;49442;45.640;13.812;2022-09-09T13:10:58;22.50;99.90
63313;DHT22;49442;45.640;13.812;2022-09-09T13:13:26;22.60;99.90
63313;DHT22;49442;45.640;13.812;2022-09-09T13:15:57;22.60;99.90
63313;DHT22;49442;45.640;13.812;2022-09-09T13:18:28;22.60;99.90
63313;DHT22;49442;45.640;13.812;2022-09-09T13:20:55;22.50;99.90
63313;DHT22;49442;45.640;13.812;2022-09-09T13:23:27;22.50;99.90
63313;DHT22;49442;45.640;13.812;2022-09-09T13:26:02;22.40;99.90
63313;DHT22;49442;45.640;13.812;2022-09-09T13:28:30;22.40;99.90
63313;DHT22;49442;45.640;13.812;2022-09-09T13:31:04;22.50;99.90
63313;DHT22;49442;45.640;13.812;2022-09-09T13:33:39;22.50;99.90
63313;DHT22;49442;45.640;13.812;2022-09-09T13:36:08;22.50;99.90
63313;DHT22;49442;45.640;13.812;2022-09-09T13:38:53;22.50;99.90
63313;DHT22;49442;45.640;13.812;2022-09-09T13:41:21;22.50;99.90
63313;DHT22;49442;45.640;13.812;2022-09-09T13:43:49;22.50;99.90
63313;DHT22;49442;45.640;13.812;2022-09-09T13:51:40;22.40;99.90
63313;DHT22;49442;45.640;13.812;2022-09-09T13:54:10;22.30;99.90
63313;DHT22;49442;45.640;13.812;2022-09-09T13:56:37;22.30;99.90
63313;DHT22;49442;45.640;13.812;2022-09-09T13:59:06;22.30;99.90
63313;DHT22;49442;45.640;13.812;2022-09-09T14:01:32;22.30;99.90
63313;DHT22;49442;45.640;13.812;2022-09-09T14:04:00;22.30;99.90
63313;DHT22;49442;45.640;13.812;2022-09-09T14:06:26;22.30;99.90
63313;DHT22;49442;45.640;13.812;2022-09-09T14:08:53;22.20;99.90
63313;DHT22;49442;45.640;13.812;2022-09-09T14:11:20;22.30;99.90
63313;DHT22;49442;45.640;13.812;2022-09-09T14:13:47;22.30;99.90
63313;DHT22;49442;45.640;13.812;2022-09-09T14:16:16;22.30;99.90
63313;DHT22;49442;45.640;13.812;2022-09-09T14:18:41;22.40;99.90
63313;DHT22;49442;45.640;13.812;2022-09-09T14:21:07;22.40;99.90
63313;DHT22;49442;45.640;13.812;2022-09-09T14:23:34;22.40;99.90
63313;DHT22;49442;45.640;13.812;2022-09-09T14:26:00;22.50;99.90
63313;DHT22;49442;45.640;13.812;2022-09-09T14:28:25;22.50;99.90
63313;DHT22;49442;45.640;13.812;2022-09-09T14:30:51;22.50;99.90
63313;DHT22;49442;45.640;13.812;2022-09-09T14:33:17;22.50;99.90
63313;DHT22;49442;45.640;13.812;2022-09-09T14:35:45;22.50;99.90
63313;DHT22;49442;45.640;13.812;2022-09-09T14:38:11;22.60;99.90
63313;DHT22;49442;45.640;13.812;2022-09-09T14:40:37;22.60;99.90
63313;DHT22;49442;45.640;13.812;2022-09-09T14:43:04;22.60;99.90
63313;DHT22;49442;45.640;13.812;2022-09-09T14:45:31;22.60;99.90
63313;DHT22;49442;45.640;13.812;2022-09-09T14:47:57;22.60;99.90
63313;DHT22;49442;45.640;13.812;2022-09-09T14:50:23;22.70;99.90
63313;DHT22;49442;45.640;13.812;2022-09-09T14:52:49;22.80;99.90
63313;DHT22;49442;45.640;13.812;2022-09-09T14:55:16;22.90;99.90
63313;DHT22;49442;45.640;13.812;2022-09-09T14:57:42;22.90;99.90
63313;DHT22;49442;45.640;13.812;2022-09-09T15:00:08;23.00;99.90
63313;DHT22;49442;45.640;13.812;2022-09-09T15:02:34;23.20;99.90
63313;DHT22;49442;45.640;13.812;2022-09-09T15:05:00;23.30;99.90
63313;DHT22;49442;45.640;13.812;2022-09-09T15:07:27;23.40;99.90
63313;DHT22;49442;45.640;13.812;2022-09-09T15:09:54;23.30;99.90
63313;DHT22;49442;45.640;13.812;2022-09-09T15:12:20;23.20;99.90
63313;DHT22;49442;45.640;13.812;2022-09-09T15:14:46;23.20;99.90
63313;DHT22;49442;45.640;13.812;2022-09-09T15:17:12;23.20;99.90
63313;DHT22;49442;45.640;13.812;2022-09-09T15:19:38;23.10;99.90
63313;DHT22;49442;45.640;13.812;2022-09-09T15:22:05;23.10;99.90
63313;DHT22;49442;45.640;13.812;2022-09-09T15:24:34;23.10;99.90
63313;DHT22;49442;45.640;13.812;2022-09-09T15:27:01;23.20;99.90
63313;DHT22;49442;45.640;13.812;2022-09-09T15:29:27;23.50;99.90
63313;DHT22;49442;45.640;13.812;2022-09-09T15:31:56;23.50;99.90
63313;DHT22;49442;45.640;13.812;2022-09-09T15:34:22;23.50;99.90
63313;DHT22;49442;45.640;13.812;2022-09-09T15:36:48;23.40;99.90
63313;DHT22;49442;45.640;13.812;2022-09-09T15:39:15;23.30;99.90
63313;DHT22;49442;45.640;13.812;2022-09-09T15:41:42;23.30;99.90
63313;DHT22;49442;45.640;13.812;2022-09-09T15:44:09;23.10;99.90
63313;DHT22;49442;45.640;13.812;2022-09-09T15:51:40;22.50;99.90
63313;DHT22;49442;45.640;13.812;2022-09-09T15:54:08;22.40;99.90
63313;DHT22;49442;45.640;13.812;2022-09-09T15:56:34;22.30;99.90
63313;DHT22;49442;45.640;13.812;2022-09-09T15:59:01;22.30;99.90
63313;DHT22;49442;45.640;13.812;2022-09-09T16:01:29;22.10;99.90
63313;DHT22;49442;45.640;13.812;2022-09-09T16:03:57;22.00;99.90
63313;DHT22;49442;45.640;13.812;2022-09-09T16:06:24;22.00;99.90
63313;DHT22;49442;45.640;13.812;2022-09-09T16:08:51;21.80;99.90
63313;DHT22;49442;45.640;13.812;2022-09-09T16:11:25;21.90;99.90
63313;DHT22;49442;45.640;13.812;2022-09-09T16:13:53;21.80;99.90
63313;DHT22;49442;45.640;13.812;2022-09-09T16:16:21;21.70;99.90
63313;DHT22;49442;45.640;13.812;2022-09-09T16:18:50;21.60;99.90
63313;DHT22;49442;45.640;13.812;2022-09-09T16:21:23;21.70;99.90
63313;DHT22;49442;45.640;13.812;2022-09-09T16:23:55;21.70;99.90
63313;DHT22;49442;45.640;13.812;2022-09-09T16:26:21;21.60;99.90
63313;DHT22;49442;45.640;13.812;2022-09-09T16:28:47;21.50;99.90
63313;DHT22;49442;45.640;13.812;2022-09-09T16:31:18;21.40;99.90
63313;DHT22;49442;45.640;13.812;2022-09-09T16:33:44;21.30;99.90
63313;DHT22;49442;45.640;13.812;2022-09-09T16:36:12;21.10;99.90
63313;DHT22;49442;45.640;13.812;2022-09-09T16:38:39;21.00;99.90
63313;DHT22;49442;45.640;13.812;2022-09-09T16:41:06;21.00;99.90
63313;DHT22;49442;45.640;13.812;2022-09-09T16:43:33;21.00;99.90
63313;DHT22;49442;45.640;13.812;2022-09-09T16:45:59;20.90;99.90
63313;DHT22;49442;45.640;13.812;2022-09-09T16:48:32;20.90;99.90
63313;DHT22;49442;45.640;13.812;2022-09-09T16:51:05;20.90;99.90
63313;DHT22;49442;45.640;13.812;2022-09-09T16:53:33;20.80;99.90
63313;DHT22;49442;45.640;13.812;2022-09-09T16:56:05;20.80;99.90
63313;DHT22;49442;45.640;13.812;2022-09-09T16:58:31;20.90;99.90
63313;DHT22;49442;45.640;13.812;2022-09-09T17:00:58;20.90;99.90
63313;DHT22;49442;45.640;13.812;2022-09-09T17:03:24;21.00;99.90
63313;DHT22;49442;45.640;13.812;2022-09-09T17:05:50;21.00;99.90
63313;DHT22;49442;45.640;13.812;2022-09-09T17:08:16;21.00;99.90
63313;DHT22;49442;45.640;13.812;2022-09-09T17:10:42;21.00;99.90
63313;DHT22;49442;45.640;13.812;2022-09-09T17:13:08;20.90;99.90
63313;DHT22;49442;45.640;13.812;2022-09-09T17:15:40;20.90;99.90
63313;DHT22;49442;45.640;13.812;2022-09-09T17:18:09;20.90;99.90
63313;DHT22;49442;45.640;13.812;2022-09-09T17:20:36;20.90;99.90
63313;DHT22;49442;45.640;13.812;2022-09-09T17:23:02;20.80;99.90
63313;DHT22;49442;45.640;13.812;2022-09-09T17:25:28;20.80;99.90
63313;DHT22;49442;45.640;13.812;2022-09-09T17:27:54;20.80;99.90
63313;DHT22;49442;45.640;13.812;2022-09-09T17:30:19;20.80;99.90
63313;DHT22;49442;45.640;13.812;2022-09-09T17:32:45;20.70;99.90
63313;DHT22;49442;45.640;13.812;2022-09-09T17:35:12;20.70;99.90
63313;DHT22;49442;45.640;13.812;2022-09-09T17:37:38;20.60;99.90
63313;DHT22;49442;45.640;13.812;2022-09-09T17:40:04;20.60;99.90
63313;DHT22;49442;45.640;13.812;2022-09-09T17:42:30;20.50;99.90
63313;DHT22;49442;45.640;13.812;2022-09-09T17:44:56;20.40;99.90
63313;DHT22;49442;45.640;13.812;2022-09-09T17:47:21;20.40;99.90
63313;DHT22;49442;45.640;13.812;2022-09-09T17:49:47;20.30;99.90
63313;DHT22;49442;45.640;13.812;2022-09-09T17:52:13;20.40;99.90
63313;DHT22;49442;45.640;13.812;2022-09-09T17:54:40;20.30;99.90
63313;DHT22;49442;45.640;13.812;2022-09-09T17:57:06;20.20;99.90
63313;DHT22;49442;45.640;13.812;2022-09-09T17:59:32;20.10;99.90